Time;durP1;ratioP1;P1;durP2;ratioP2;P2;SDS_P1;SDS_P2;PMS_P1;PMS_P2;Temp;Humidity;BMP_temperature;BMP_pressure;BME280_temperature;BME280_humidity;BME280_pressure;Samples;Min_cycle;Max_cycle;Signal;HPM_P1;HPM_P2
2022/06/27 17:34:53;;;;;;;0.00;0.00;;;;;;;;;;5122247;27;20671;-72
2022/06/27 17:37:20;;;;;;;0.00;0.00;;;;;;;;;;5104801;28;20233;-72
2022/06/27 17:39:48;;;;;;;0.00;0.00;;;;;;;;;;5105659;28;20283;-73
2022/06/27 17:42:15;;;;;;;0.00;0.00;;;;;;;;;;5105901;28;20190;-73
2022/06/27 17:44:43;;;;;;;0.00;0.00;;;;;;;;;;5102214;28;20196;-73
2022/06/27 17:47:11;;;;;;;0.00;0.00;;;;;;;;;;5106284;28;20648;-73
2022/06/27 17:49:39;;;;;;;0.00;0.00;;;;;;;;;;5105711;28;20270;-73
2022/06/27 17:52:08;;;;;;;0.00;0.00;;;;;;;;;;5112768;27;20192;-74
2022/06/27 17:54:35;;;;;;;0.00;0.00;;;;;;;;;;5114671;27;20193;-74
2022/06/27 17:57:03;;;;;;;0.00;0.00;;;;;;;;;;5114255;27;20201;-74
2022/06/27 17:59:30;;;;;;;0.00;0.00;;;;;;;;;;5109119;28;20254;-73
2022/06/27 18:01:58;;;;;;;0.00;0.00;;;;;;;;;;5107482;28;20282;-73
2022/06/27 18:04:25;;;;;;;0.00;0.00;;;;;;;;;;5109506;28;20278;-74
2022/06/27 18:06:52;;;;;;;0.00;0.00;;;;;;;;;;5114953;27;20193;-73
2022/06/27 18:09:21;;;;;;;0.00;0.00;;;;;;;;;;5102208;28;20662;-72
2022/06/27 18:11:48;;;;;;;0.00;0.00;;;25.80;99.90;;;;;;5142935;27;20207;-73
2022/06/27 18:14:15;;;;;;;0.00;0.00;;;25.70;99.90;;;;;;5111492;28;20712;-73
2022/06/27 18:16:43;;;;;;;0.00;0.00;;;25.40;99.90;;;;;;5112348;27;20723;-73
2022/06/27 18:19:10;;;;;;;0.00;0.00;;;25.10;99.90;;;;;;5105627;27;20205;-74
2022/06/27 18:21:37;;;;;;;0.00;0.00;;;24.90;99.90;;;;;;5102646;28;20197;-73
2022/06/27 18:24:08;;;;;;;0.00;0.00;;;24.80;99.90;;;;;;5108651;28;20274;-74
2022/06/27 18:26:37;;;;;;;0.00;0.00;;;24.70;99.90;;;;;;5108168;28;20204;-72
2022/06/27 18:29:04;;;;;;;0.00;0.00;;;24.70;99.90;;;;;;5108612;28;20262;-73
2022/06/27 18:31:32;;;;;;;0.00;0.00;;;24.60;99.90;;;;;;5102441;27;20308;-73
2022/06/27 18:33:58;;;;;;;0.00;0.00;;;24.60;99.90;;;;;;5135081;27;20225;-73
2022/06/27 18:36:26;;;;;;;0.00;0.00;;;24.50;99.90;;;;;;5108186;28;20197;-73
2022/06/27 18:38:54;;;;;;;0.00;0.00;;;24.40;99.90;;;;;;5104962;28;20197;-74
2022/06/27 18:41:21;;;;;;;0.00;0.00;;;24.30;99.90;;;;;;5104815;28;20209;-73
2022/06/27 18:43:50;;;;;;;0.00;0.00;;;24.20;99.90;;;;;;5097768;28;20239;-71
2022/06/27 18:46:17;;;;;;;0.00;0.00;;;24.10;99.90;;;;;;5090074;28;20212;-71
2022/06/27 18:48:45;;;;;;;0.00;0.00;;;24.00;99.90;;;;;;5086219;28;20198;-71
2022/06/27 18:51:13;;;;;;;0.00;0.00;;;24.00;99.90;;;;;;5086797;28;20216;-71
2022/06/27 18:53:40;;;;;;;0.00;0.00;;;23.90;99.90;;;;;;5087096;28;20304;-71
2022/06/27 18:56:07;;;;;;;0.00;0.00;;;23.90;99.90;;;;;;5093562;28;20198;-71
2022/06/27 18:58:35;;;;;;;0.00;0.00;;;23.90;99.90;;;;;;5088224;28;20292;-71
2022/06/27 19:01:06;;;;;;;0.00;0.00;;;23.80;99.90;;;;;;5096692;28;20205;-71
2022/06/27 19:03:34;;;;;;;0.00;0.00;;;23.90;99.90;;;;;;5097435;28;20678;-71
2022/06/27 19:06:02;;;;;;;0.00;0.00;;;23.90;99.90;;;;;;5095338;28;20190;-71
2022/06/27 19:08:29;;;;;;;0.00;0.00;;;23.80;99.90;;;;;;5089501;28;20202;-71
2022/06/27 19:10:57;;;;;;;0.00;0.00;;;23.80;99.90;;;;;;5090349;28;20198;-71
2022/06/27 19:13:25;;;;;;;0.00;0.00;;;23.80;99.90;;;;;;5083754;28;20267;-71
2022/06/27 19:15:51;;;;;;;0.00;0.00;;;23.80;99.90;;;;;;5082153;28;20277;-71
2022/06/27 19:18:21;;;;;;;0.00;0.00;;;23.70;99.90;;;;;;5095127;28;20202;-72
2022/06/27 19:20:49;;;;;;;0.00;0.00;;;23.60;99.90;;;;;;5091102;28;20197;-72
2022/06/27 19:23:17;;;;;;;0.00;0.00;;;23.60;99.90;;;;;;5091688;28;20225;-71
2022/06/27 19:25:44;;;;;;;0.00;0.00;;;23.50;99.90;;;;;;5086622;28;20198;-72
2022/06/27 19:28:12;;;;;;;0.00;0.00;;;23.50;99.90;;;;;;5094098;28;20197;-72
2022/06/27 19:30:40;;;;;;;0.00;0.00;;;23.50;99.90;;;;;;5087625;28;20220;-73
2022/06/27 19:33:07;;;;;;;0.00;0.00;;;23.50;99.90;;;;;;5074208;28;20336;-73
2022/06/27 19:35:36;;;;;;;0.00;0.00;;;23.40;99.90;;;;;;5085444;28;20224;-73
2022/06/27 19:38:04;;;;;;;0.00;0.00;;;23.50;99.90;;;;;;5076325;28;20205;-73
2022/06/27 19:40:31;;;;;;;0.00;0.00;;;23.50;99.90;;;;;;5088295;28;20208;-73
2022/06/27 19:42:58;;;;;;;0.00;0.00;;;23.40;99.90;;;;;;5083374;28;20222;-72
2022/06/27 19:45:28;;;;;;;0.00;0.00;;;23.40;99.90;;;;;;5087683;28;20257;-72
2022/06/27 19:47:55;;;;;;;0.00;0.00;;;23.40;99.90;;;;;;5083761;28;20194;-73
2022/06/27 19:50:22;;;;;;;0.00;0.00;;;23.30;99.90;;;;;;5090061;28;20198;-73
2022/06/27 19:52:51;;;;;;;0.00;0.00;;;23.30;99.90;;;;;;5083315;28;20217;-73
2022/06/27 19:55:18;;;;;;;0.00;0.00;;;23.20;99.90;;;;;;5087464;28;20202;-72
2022/06/27 19:57:45;;;;;;;0.00;0.00;;;23.10;99.90;;;;;;5089431;28;20201;-72
2022/06/27 20:00:13;;;;;;;0.00;0.00;;;23.00;99.90;;;;;;5088785;28;20202;-73
2022/06/27 20:02:42;;;;;;;0.00;0.00;;;23.00;99.90;;;;;;5085120;28;20229;-72
2022/06/27 20:05:09;;;;;;;0.00;0.00;;;23.00;99.90;;;;;;5085265;28;20279;-72
2022/06/27 20:07:37;;;;;;;0.00;0.00;;;22.90;99.90;;;;;;5086319;28;20193;-73
2022/06/27 20:10:09;;;;;;;0.00;0.00;;;22.90;99.90;;;;;;5085764;28;20297;-72
2022/06/27 20:12:40;;;;;;;0.00;0.00;;;22.80;99.90;;;;;;5086323;28;20252;-72
2022/06/27 20:15:09;;;;;;;0.00;0.00;;;22.80;99.90;;;;;;5084860;28;20202;-73
2022/06/27 20:17:36;;;;;;;0.00;0.00;;;22.70;99.90;;;;;;5090243;28;20197;-74
2022/06/27 20:20:07;;;;;;;0.00;0.00;;;22.70;99.90;;;;;;5082495;28;20757;-72
2022/06/27 20:22:35;;;;;;;0.00;0.00;;;22.70;99.90;;;;;;5083718;28;20236;-72
2022/06/27 20:25:02;;;;;;;0.00;0.00;;;22.70;99.90;;;;;;5084404;28;20213;-72
2022/06/27 20:27:31;;;;;;;0.00;0.00;;;22.60;99.90;;;;;;5085660;28;20212;-72
2022/06/27 20:29:58;;;;;;;0.00;0.00;;;22.60;99.90;;;;;;5084848;28;20206;-73
2022/06/27 20:32:26;;;;;;;0.00;0.00;;;22.50;99.90;;;;;;5083875;28;20253;-72
2022/06/27 20:34:54;;;;;;;0.00;0.00;;;22.40;99.90;;;;;;5092346;28;20278;-70
2022/06/27 20:37:21;;;;;;;0.00;0.00;;;22.40;99.90;;;;;;5081532;28;20274;-70
2022/06/27 20:39:50;;;;;;;0.00;0.00;;;22.30;99.90;;;;;;5085376;28;20198;-71
2022/06/27 20:42:17;;;;;;;0.00;0.00;;;22.30;99.90;;;;;;5085057;28;20213;-70
2022/06/27 20:44:47;;;;;;;0.00;0.00;;;22.20;99.90;;;;;;5081969;28;20226;-70
2022/06/27 20:47:14;;;;;;;0.00;0.00;;;22.10;99.90;;;;;;5083098;28;20216;-70
2022/06/27 20:49:41;;;;;;;0.00;0.00;;;22.10;99.90;;;;;;5086304;28;20224;-70
2022/06/27 20:52:10;;;;;;;0.00;0.00;;;22.00;99.90;;;;;;5086110;28;20201;-71
2022/06/27 20:54:39;;;;;;;0.00;0.00;;;22.00;99.90;;;;;;5086104;28;20201;-71
2022/06/27 20:57:07;;;;;;;0.00;0.00;;;21.90;99.90;;;;;;5083390;28;20209;-71
2022/06/27 20:59:36;;;;;;;0.00;0.00;;;21.90;99.90;;;;;;5084946;28;20202;-70
2022/06/27 21:02:06;;;;;;;0.00;0.00;;;21.90;99.90;;;;;;5082279;28;20286;-71
2022/06/27 21:04:33;;;;;;;0.00;0.00;;;21.90;99.90;;;;;;5087507;28;20218;-71
2022/06/27 21:07:00;;;;;;;0.00;0.00;;;22.00;99.90;;;;;;5091644;28;20212;-70
2022/06/27 21:12:12;;;;;;;0.00;0.00;;;21.90;99.90;;;;;;5069940;28;20206;-71
2022/06/27 21:14:39;;;;;;;0.00;0.00;;;21.90;99.90;;;;;;5082781;28;20190;-71
2022/06/27 21:17:09;;;;;;;0.00;0.00;;;21.80;99.90;;;;;;5086655;28;20198;-71
2022/06/27 21:19:36;;;;;;;0.00;0.00;;;21.80;99.90;;;;;;5091163;28;20201;-71
2022/06/27 21:22:04;;;;;;;0.00;0.00;;;21.70;99.90;;;;;;5081464;28;20202;-71
2022/06/27 21:24:31;;;;;;;0.00;0.00;;;21.60;99.90;;;;;;5088300;28;20221;-71
2022/06/27 21:27:00;;;;;;;0.00;0.00;;;21.60;99.90;;;;;;5080204;28;20722;-71
2022/06/27 21:29:28;;;;;;;0.00;0.00;;;21.50;99.90;;;;;;5084599;28;20194;-71
2022/06/27 21:31:56;;;;;;;0.00;0.00;;;21.50;99.90;;;;;;5084164;28;20194;-71
2022/06/27 21:34:24;;;;;;;0.00;0.00;;;21.40;99.90;;;;;;5085049;28;20323;-71
2022/06/27 21:36:51;;;;;;;0.00;0.00;;;21.40;99.90;;;;;;5084247;28;20198;-71
2022/06/27 21:39:18;;;;;;;0.00;0.00;;;21.40;99.90;;;;;;5085161;28;20202;-71
2022/06/27 21:41:46;;;;;;;0.00;0.00;;;21.40;99.90;;;;;;5084367;28;20206;-71
2022/06/27 21:44:13;;;;;;;0.00;0.00;;;21.40;99.90;;;;;;5089034;28;20229;-70
2022/06/27 21:46:40;;;;;;;0.00;0.00;;;21.40;99.90;;;;;;5094835;28;20224;-71
2022/06/27 21:49:07;;;;;;;0.00;0.00;;;21.30;99.90;;;;;;5084145;28;20217;-71
2022/06/27 21:51:35;;;;;;;0.00;0.00;;;21.30;99.90;;;;;;5086973;28;20202;-70
2022/06/27 21:54:02;;;;;;;0.00;0.00;;;21.20;99.90;;;;;;5083529;28;20275;-70
2022/06/27 21:56:29;;;;;;;0.00;0.00;;;21.20;99.90;;;;;;5084196;28;20205;-70
2022/06/27 21:58:58;;;;;;;0.00;0.00;;;21.20;99.90;;;;;;5084262;28;20204;-71
2022/06/27 22:01:25;;;;;;;0.00;0.00;;;21.10;99.90;;;;;;5083564;28;20198;-71
2022/06/27 22:03:52;;;;;;;0.00;0.00;;;21.10;99.90;;;;;;5089113;28;20213;-71
2022/06/27 22:06:19;;;;;;;0.00;0.00;;;21.10;99.90;;;;;;5084558;28;20209;-71
2022/06/27 22:08:47;;;;;;;0.00;0.00;;;21.00;99.90;;;;;;5084127;28;20263;-71
2022/06/27 22:11:14;;;;;;;0.00;0.00;;;21.00;99.90;;;;;;5077464;28;20197;-70
2022/06/27 22:13:41;;;;;;;0.00;0.00;;;21.00;99.90;;;;;;5078677;28;20233;-71
2022/06/27 22:16:09;;;;;;;0.00;0.00;;;20.90;99.90;;;;;;5097643;28;20225;-71
2022/06/27 22:18:36;;;;;;;0.00;0.00;;;21.00;99.90;;;;;;5083557;28;20205;-70
2022/06/27 22:21:03;;;;;;;0.00;0.00;;;20.90;99.90;;;;;;5082636;28;20225;-70
2022/06/27 22:23:31;;;;;;;0.00;0.00;;;21.00;99.90;;;;;;5086832;28;20218;-70
2022/06/27 22:25:59;;;;;;;0.00;0.00;;;21.00;99.90;;;;;;5086544;28;20226;-70
2022/06/27 22:28:26;;;;;;;0.00;0.00;;;21.00;99.90;;;;;;5089223;28;20682;-71
2022/06/27 22:30:53;;;;;;;0.00;0.00;;;21.00;99.90;;;;;;5088751;28;20201;-71
2022/06/27 22:33:22;;;;;;;0.00;0.00;;;21.00;99.90;;;;;;5087394;28;20237;-70
2022/06/27 22:35:49;;;;;;;0.00;0.00;;;21.00;99.90;;;;;;5086772;28;20194;-70
2022/06/27 22:38:16;;;;;;;0.00;0.00;;;21.00;99.90;;;;;;5121110;27;20279;-70
2022/06/27 22:40:43;;;;;;;0.00;0.00;;;21.10;99.90;;;;;;5087021;28;20205;-70
2022/06/27 22:43:11;;;;;;;0.00;0.00;;;21.10;99.90;;;;;;5086708;28;20222;-70
2022/06/27 22:45:38;;;;;;;0.00;0.00;;;21.10;99.90;;;;;;5087325;28;20213;-70
2022/06/27 22:48:05;;;;;;;0.00;0.00;;;21.00;99.90;;;;;;5086349;28;20742;-70
2022/06/27 22:50:33;;;;;;;0.00;0.00;;;21.10;99.90;;;;;;5083258;28;20205;-70
2022/06/27 22:53:01;;;;;;;0.00;0.00;;;21.10;99.90;;;;;;5084575;28;20684;-70
2022/06/27 22:55:28;;;;;;;0.00;0.00;;;21.00;99.90;;;;;;5086039;28;20194;-70
2022/06/27 22:57:54;;;;;;;0.00;0.00;;;21.00;99.90;;;;;;5086740;28;20212;-70
2022/06/27 23:00:23;;;;;;;0.00;0.00;;;21.00;99.90;;;;;;5086834;28;20214;-71
2022/06/27 23:02:50;;;;;;;0.00;0.00;;;20.90;99.90;;;;;;5088076;28;20222;-71
2022/06/27 23:05:17;;;;;;;0.00;0.00;;;20.90;99.90;;;;;;5086937;28;20224;-70
2022/06/27 23:07:46;;;;;;;0.00;0.00;;;20.90;99.90;;;;;;5086635;28;20232;-71
2022/06/27 23:10:14;;;;;;;0.00;0.00;;;20.90;99.90;;;;;;5086031;28;20289;-71
2022/06/27 23:12:41;;;;;;;0.00;0.00;;;20.80;99.90;;;;;;5085309;28;20290;-71
2022/06/27 23:15:10;;;;;;;0.00;0.00;;;20.70;99.90;;;;;;5087667;28;20194;-70
2022/06/27 23:17:39;;;;;;;0.00;0.00;;;20.70;99.90;;;;;;5081229;28;20196;-70
2022/06/27 23:20:09;;;;;;;0.00;0.00;;;20.60;99.90;;;;;;5087927;28;20285;-71
2022/06/27 23:22:36;;;;;;;0.00;0.00;;;20.60;99.90;;;;;;5087779;28;20241;-70
2022/06/27 23:25:04;;;;;;;0.00;0.00;;;20.60;99.90;;;;;;5086322;28;20224;-71
2022/06/27 23:27:31;;;;;;;0.00;0.00;;;20.60;99.90;;;;;;5086037;28;20230;-70
2022/06/27 23:29:59;;;;;;;0.00;0.00;;;20.50;99.90;;;;;;5086581;28;20206;-70
2022/06/27 23:32:26;;;;;;;0.00;0.00;;;20.50;99.90;;;;;;5087021;28;20217;-69
2022/06/27 23:34:55;;;;;;;0.00;0.00;;;20.50;99.90;;;;;;5086548;28;20202;-69
2022/06/27 23:37:21;;;;;;;0.00;0.00;;;20.50;99.90;;;;;;5087210;28;20205;-70
2022/06/27 23:39:49;;;;;;;0.00;0.00;;;20.50;99.90;;;;;;5087506;28;20198;-71
2022/06/27 23:42:17;;;;;;;0.00;0.00;;;20.50;99.90;;;;;;5085460;28;20738;-71
2022/06/27 23:44:44;;;;;;;0.00;0.00;;;20.50;99.90;;;;;;5078883;28;20219;-71
2022/06/27 23:47:12;;;;;;;0.00;0.00;;;20.50;99.90;;;;;;5083072;28;20205;-70
2022/06/27 23:49:40;;;;;;;0.00;0.00;;;20.50;99.90;;;;;;5083608;28;20653;-70
2022/06/27 23:52:09;;;;;;;0.00;0.00;;;20.50;99.90;;;;;;5085407;28;20202;-70
2022/06/27 23:54:36;;;;;;;0.00;0.00;;;20.60;99.90;;;;;;5085510;28;20293;-70
2022/06/27 23:57:04;;;;;;;0.00;0.00;;;20.60;99.90;;;;;;5085438;28;20217;-70
2022/06/27 23:59:31;;;;;;;0.00;0.00;;;20.60;99.90;;;;;;5084411;28;20225;-70
